createdAt,value
2022-12-23T00:00:15.458Z,0.90
2022-12-23T00:02:43.181Z,0.70
2022-12-23T00:05:10.671Z,0.70
2022-12-23T00:07:38.134Z,1.00
2022-12-23T00:10:06.072Z,0.77
2022-12-23T00:12:58.073Z,0.70
2022-12-23T00:15:28.197Z,0.70
2022-12-23T00:17:56.062Z,0.93
2022-12-23T00:20:23.622Z,0.88
2022-12-23T00:23:07.741Z,1.00
2022-12-23T00:25:46.423Z,0.90
2022-12-23T00:28:20.191Z,1.20
2022-12-23T00:31:02.019Z,1.30
2022-12-23T00:33:33.653Z,1.00
2022-12-23T00:36:01.650Z,0.95
2022-12-23T00:38:47.746Z,1.30
2022-12-23T00:41:37.464Z,0.90
2022-12-23T00:44:05.049Z,1.02
2022-12-23T00:46:34.722Z,1.27
2022-12-23T00:49:21.254Z,1.30
2022-12-23T00:51:51.903Z,0.98
2022-12-23T00:54:19.854Z,1.30
2022-12-23T00:56:50.020Z,1.08
2022-12-23T01:02:03.745Z,0.68
2022-12-23T01:04:49.684Z,0.70
2022-12-23T01:07:17.103Z,0.98
2022-12-23T01:09:44.461Z,0.60
2022-12-23T01:12:11.899Z,0.55
2022-12-23T01:14:39.150Z,0.80
2022-12-23T01:17:07.631Z,0.68
2022-12-23T01:19:35.119Z,0.50
2022-12-23T01:22:03.206Z,0.50
2022-12-23T01:24:31.580Z,0.50
2022-12-23T01:26:59.577Z,0.65
2022-12-23T01:29:27.586Z,0.70
2022-12-23T01:31:54.974Z,0.55
2022-12-23T01:34:22.555Z,0.50
2022-12-23T01:36:49.775Z,0.73
2022-12-23T01:39:17.172Z,0.60
2022-12-23T01:42:03.004Z,1.00
2022-12-23T01:44:52.392Z,0.70
2022-12-23T01:47:22.517Z,0.50
2022-12-23T01:49:50.667Z,0.77
2022-12-23T01:52:18.452Z,1.10
2022-12-23T01:54:46.023Z,1.23
2022-12-23T01:57:13.320Z,3.00
2022-12-23T02:00:00.406Z,2.17
2022-12-23T02:02:48.710Z,1.45
2022-12-23T02:05:17.062Z,1.70
2022-12-23T02:08:03.477Z,2.22
2022-12-23T02:10:44.247Z,2.20
2022-12-23T02:13:24.287Z,1.90
2022-12-23T02:16:16.549Z,1.63
2022-12-23T02:18:50.943Z,1.73
2022-12-23T02:21:21.528Z,1.45
2022-12-23T02:24:17.848Z,1.20
2022-12-23T02:27:19.307Z,1.23
2022-12-23T02:30:22.190Z,1.27
2022-12-23T02:33:07.532Z,1.60
2022-12-23T02:35:47.066Z,1.58
2022-12-23T02:38:29.975Z,1.80
2022-12-23T02:41:12.318Z,1.77
2022-12-23T02:43:47.284Z,1.60
2022-12-23T02:46:26.239Z,1.63
2022-12-23T02:49:11.373Z,1.83
2022-12-23T02:51:44.114Z,2.13
2022-12-23T02:54:16.270Z,2.28
2022-12-23T02:56:46.417Z,1.95
2022-12-23T02:59:17.436Z,1.85
2022-12-23T03:01:45.636Z,2.13
2022-12-23T03:04:14.326Z,2.47
2022-12-23T03:06:43.907Z,1.92
2022-12-23T03:09:17.896Z,1.98
2022-12-23T03:12:17.223Z,1.80
2022-12-23T03:15:08.473Z,2.47
2022-12-23T03:18:02.500Z,2.08
2022-12-23T03:20:51.665Z,1.92
2022-12-23T03:23:26.597Z,1.83
2022-12-23T03:26:16.376Z,2.25
2022-12-23T03:28:51.550Z,2.05
2022-12-23T03:31:24.283Z,2.30
2022-12-23T03:34:03.844Z,2.33
2022-12-23T03:36:45.019Z,2.17
2022-12-23T03:39:16.507Z,2.35
2022-12-23T03:41:54.323Z,2.30
2022-12-23T03:44:28.760Z,2.17
2022-12-23T03:47:07.308Z,1.80
2022-12-23T03:49:44.611Z,2.78
2022-12-23T03:52:21.931Z,2.85
2022-12-23T03:54:53.539Z,2.50
2022-12-23T03:57:26.346Z,2.38
2022-12-23T03:59:54.200Z,2.35
2022-12-23T04:02:36.128Z,2.03
2022-12-23T04:05:25.096Z,2.40
2022-12-23T04:08:13.670Z,2.50
2022-12-23T04:10:41.160Z,2.35
2022-12-23T04:13:08.837Z,1.80
2022-12-23T04:15:41.198Z,2.10
2022-12-23T04:18:09.642Z,2.28
2022-12-23T04:20:37.452Z,2.20
2022-12-23T04:23:05.204Z,2.13
2022-12-23T04:25:32.575Z,2.45
2022-12-23T04:27:59.876Z,2.55
2022-12-23T04:30:33.535Z,2.15
2022-12-23T04:33:02.574Z,2.70
2022-12-23T04:35:30.686Z,2.88
2022-12-23T04:37:57.895Z,2.75
2022-12-23T04:40:25.187Z,2.75
2022-12-23T04:42:52.475Z,2.88
2022-12-23T04:45:19.876Z,2.75
2022-12-23T04:47:47.157Z,3.05
2022-12-23T04:50:16.077Z,2.97
2022-12-23T04:52:43.987Z,2.70
2022-12-23T04:55:11.676Z,2.58
2022-12-23T04:57:39.122Z,2.88
2022-12-23T05:00:08.335Z,2.78
2022-12-23T05:02:35.744Z,3.67
2022-12-23T05:05:03.537Z,2.63
2022-12-23T05:07:30.811Z,3.35
2022-12-23T05:10:01.905Z,2.75
2022-12-23T05:12:31.533Z,2.92
2022-12-23T05:14:58.837Z,3.33
2022-12-23T05:17:26.154Z,2.60
2022-12-23T05:19:53.410Z,2.67
2022-12-23T05:22:20.753Z,2.20
2022-12-23T05:24:48.386Z,2.30
2022-12-23T05:27:15.681Z,2.30
2022-12-23T05:29:42.993Z,2.45
2022-12-23T05:32:10.363Z,2.60
2022-12-23T05:34:37.757Z,2.28
2022-12-23T05:37:05.018Z,2.30
2022-12-23T05:39:32.339Z,2.78
2022-12-23T05:41:59.566Z,2.50
2022-12-23T05:44:26.940Z,2.92
2022-12-23T05:46:54.222Z,1.90
2022-12-23T05:49:22.610Z,2.13
2022-12-23T05:51:49.964Z,2.70
2022-12-23T05:54:17.277Z,1.92
2022-12-23T05:56:44.612Z,1.80
2022-12-23T05:59:12.093Z,1.60
2022-12-23T06:01:39.528Z,1.55
2022-12-23T06:04:06.967Z,2.20
2022-12-23T06:06:34.330Z,2.00
2022-12-23T06:09:01.584Z,1.40
2022-12-23T06:11:28.931Z,1.45
2022-12-23T06:13:56.230Z,1.80
2022-12-23T06:16:23.518Z,1.90
2022-12-23T06:18:55.222Z,1.30
2022-12-23T06:21:22.726Z,1.58
2022-12-23T06:23:50.039Z,1.55
2022-12-23T06:26:17.429Z,1.35
2022-12-23T06:28:44.674Z,1.42
2022-12-23T06:31:11.907Z,0.93
2022-12-23T06:33:39.182Z,1.00
2022-12-23T06:36:07.297Z,1.10
2022-12-23T06:38:35.097Z,1.20
2022-12-23T06:41:02.555Z,1.10
2022-12-23T06:43:29.911Z,0.77
2022-12-23T06:45:57.264Z,0.80
2022-12-23T06:48:24.609Z,0.70
2022-12-23T06:50:52.770Z,1.00
2022-12-23T06:53:20.041Z,0.77
2022-12-23T06:55:47.672Z,0.70
2022-12-23T06:58:14.988Z,0.80
2022-12-23T07:00:42.280Z,1.20
2022-12-23T07:03:09.614Z,1.10
2022-12-23T07:05:37.904Z,1.10
2022-12-23T07:08:05.683Z,0.80
2022-12-23T07:10:34.144Z,0.90
2022-12-23T07:13:01.682Z,0.80
2022-12-23T07:15:29.428Z,0.80
2022-12-23T07:17:56.674Z,0.77
2022-12-23T07:20:23.939Z,0.70
2022-12-23T07:22:54.288Z,0.80
2022-12-23T07:25:21.797Z,0.88
2022-12-23T07:27:52.246Z,0.70
2022-12-23T07:30:19.675Z,0.80
2022-12-23T07:32:50.920Z,1.15
2022-12-23T07:35:18.924Z,0.60
2022-12-23T07:37:46.156Z,1.00
2022-12-23T07:40:13.686Z,0.65
2022-12-23T07:42:46.554Z,0.55
2022-12-23T07:45:14.501Z,0.98
2022-12-23T07:47:42.270Z,1.17
2022-12-23T07:50:09.990Z,0.90
2022-12-23T07:52:37.559Z,0.90
2022-12-23T07:55:05.752Z,0.82
2022-12-23T07:57:37.959Z,0.95
2022-12-23T08:00:07.305Z,1.90
2022-12-23T08:02:39.926Z,1.00
2022-12-23T08:05:08.485Z,1.15
2022-12-23T08:07:36.312Z,1.00
2022-12-23T08:10:04.461Z,1.10
2022-12-23T08:12:31.764Z,1.00
2022-12-23T08:14:59.074Z,1.20
2022-12-23T08:17:27.881Z,1.00
2022-12-23T08:19:55.557Z,1.10
2022-12-23T08:22:23.170Z,0.93
2022-12-23T08:24:50.544Z,0.57
2022-12-23T08:27:17.947Z,0.88
2022-12-23T08:29:45.412Z,1.08
2022-12-23T08:32:12.882Z,1.00
2022-12-23T08:34:40.255Z,0.90
2022-12-23T08:37:07.616Z,0.90
2022-12-23T08:39:34.928Z,1.30
2022-12-23T08:42:02.367Z,1.00
2022-12-23T08:44:29.906Z,1.45
2022-12-23T08:46:57.466Z,1.00
2022-12-23T08:49:24.717Z,0.80
2022-12-23T08:51:52.127Z,1.10
2022-12-23T08:54:20.517Z,0.95
2022-12-23T08:56:47.889Z,0.90
2022-12-23T08:59:19.664Z,1.20
2022-12-23T09:01:48.367Z,0.80
2022-12-23T09:04:15.975Z,1.88
2022-12-23T09:06:43.801Z,1.25
2022-12-23T09:09:12.784Z,1.40
2022-12-23T09:11:40.114Z,2.50
2022-12-23T09:14:10.267Z,9.70
2022-12-23T09:19:05.089Z,32.53
2022-12-23T09:21:32.439Z,7.35
2022-12-23T09:23:59.668Z,6.55
2022-12-23T09:26:29.089Z,5.97
2022-12-23T09:28:56.980Z,13.93
2022-12-23T09:31:26.742Z,6.47
2022-12-23T09:33:58.813Z,10.65
2022-12-23T09:36:29.946Z,7.63
2022-12-23T09:38:58.168Z,9.05
2022-12-23T09:41:46.476Z,21.33
2022-12-23T09:44:29.807Z,2.85
2022-12-23T09:47:00.876Z,4.38
2022-12-23T09:49:30.277Z,8.27
2022-12-23T09:52:03.988Z,6.70
2022-12-23T09:54:44.078Z,11.32
2022-12-23T09:57:28.247Z,3.47
2022-12-23T09:59:58.423Z,6.43
2022-12-23T10:05:17.176Z,2.53
2022-12-23T10:07:48.304Z,2.30
2022-12-23T10:10:40.042Z,3.60
2022-12-23T10:13:25.107Z,3.03
2022-12-23T10:15:53.875Z,1.88
2022-12-23T10:18:36.099Z,1.50
2022-12-23T10:21:06.894Z,1.30
2022-12-23T10:23:38.615Z,1.77
2022-12-23T10:26:15.451Z,2.10
2022-12-23T10:28:42.746Z,2.55
2022-12-23T10:31:39.245Z,5.00
2022-12-23T10:34:36.635Z,3.25
2022-12-23T10:37:09.031Z,2.60
2022-12-23T10:40:06.271Z,2.03
2022-12-23T10:42:46.128Z,1.20
2022-12-23T10:45:19.304Z,1.52
2022-12-23T10:48:08.603Z,1.50
2022-12-23T10:51:01.837Z,1.30
2022-12-23T11:04:50.953Z,1.75
2022-12-23T11:10:19.587Z,2.10
2022-12-23T11:12:50.583Z,1.02
2022-12-23T11:15:40.138Z,1.40
2022-12-23T11:18:11.734Z,0.88
2022-12-23T11:20:41.167Z,1.30
2022-12-23T11:23:27.105Z,1.33
2022-12-23T11:26:07.412Z,1.00
2022-12-23T11:28:47.832Z,1.70
2022-12-23T11:31:17.304Z,2.25
2022-12-23T11:34:01.936Z,1.33
2022-12-23T11:36:30.570Z,1.17
2022-12-23T11:39:23.770Z,3.00
2022-12-23T11:41:53.954Z,1.30
2022-12-23T11:46:54.178Z,1.23
2022-12-23T11:49:33.549Z,2.60
2022-12-23T11:52:02.281Z,1.60
2022-12-23T11:54:29.599Z,22.60
2022-12-23T11:56:57.678Z,43.55
2022-12-23T11:59:39.765Z,4.28
2022-12-23T12:02:22.934Z,3.00
2022-12-23T12:05:03.096Z,2.03
2022-12-23T12:09:59.446Z,1.85
2022-12-23T12:12:28.186Z,1.80
2022-12-23T12:14:57.350Z,1.77
2022-12-23T12:17:36.255Z,1.60
2022-12-23T12:20:20.930Z,1.60
2022-12-23T12:23:10.780Z,1.60
2022-12-23T12:25:41.143Z,1.80
2022-12-23T12:28:14.547Z,1.58
2022-12-23T12:30:53.010Z,1.40
2022-12-23T12:33:28.836Z,2.63
2022-12-23T12:36:10.041Z,2.03
2022-12-23T12:38:39.044Z,1.95
2022-12-23T12:41:29.673Z,1.70
2022-12-23T12:44:23.216Z,1.45
2022-12-23T12:46:54.346Z,1.83
2022-12-23T12:49:42.503Z,1.90
2022-12-23T12:52:20.233Z,2.45
2022-12-23T12:54:53.493Z,1.60
2022-12-23T12:57:23.593Z,1.70
2022-12-23T13:02:24.988Z,2.00
2022-12-23T13:05:10.641Z,2.40
2022-12-23T13:08:15.402Z,1.75
2022-12-23T13:10:53.138Z,2.50
2022-12-23T13:13:29.175Z,2.00
2022-12-23T13:16:14.473Z,2.40
2022-12-23T13:19:05.986Z,2.92
2022-12-23T13:21:41.048Z,2.65
2022-12-23T13:24:34.559Z,2.20
2022-12-23T13:27:14.891Z,1.67
2022-12-23T13:32:21.773Z,2.20
2022-12-23T13:35:04.288Z,2.50
2022-12-23T13:37:39.698Z,1.98
2022-12-23T13:40:28.514Z,3.03
2022-12-23T13:43:00.315Z,2.95
2022-12-23T13:45:32.941Z,2.38
2022-12-23T13:48:37.934Z,2.38
2022-12-23T13:51:15.904Z,2.95
2022-12-23T13:54:16.124Z,2.70
2022-12-23T13:59:13.300Z,2.83
2022-12-23T14:01:41.907Z,2.05
2022-12-23T14:04:53.894Z,2.15
2022-12-23T14:07:23.134Z,3.13
2022-12-23T14:10:21.647Z,1.90
2022-12-23T14:13:09.254Z,1.50
2022-12-23T14:16:18.595Z,1.40
2022-12-23T14:19:24.945Z,2.37
2022-12-23T14:22:23.674Z,1.50
2022-12-23T14:25:35.880Z,1.95
2022-12-23T14:28:33.774Z,1.88
2022-12-23T14:31:39.953Z,2.03
2022-12-23T14:34:30.540Z,3.17
2022-12-23T14:37:21.225Z,1.67
2022-12-23T14:40:39.670Z,1.90
2022-12-23T14:43:33.490Z,1.95
2022-12-23T14:46:33.220Z,2.28
2022-12-23T14:49:40.098Z,1.70
2022-12-23T14:52:50.700Z,1.80
2022-12-23T14:55:42.282Z,1.95
2022-12-23T14:58:50.906Z,1.92
2022-12-23T15:01:59.470Z,15.50
2022-12-23T15:04:54.499Z,2.30
2022-12-23T15:07:43.969Z,2.58
2022-12-23T15:10:31.952Z,1.95
2022-12-23T15:13:19.511Z,2.50
2022-12-23T15:16:07.328Z,2.42
2022-12-23T15:18:56.516Z,2.28
2022-12-23T15:21:48.198Z,2.85
2022-12-23T15:24:40.909Z,2.40
2022-12-23T15:27:33.682Z,2.22
2022-12-23T15:30:21.798Z,2.95
2022-12-23T15:33:51.465Z,2.70
2022-12-23T15:36:31.942Z,2.45
2022-12-23T15:39:22.298Z,2.60
2022-12-23T15:42:27.323Z,2.75
2022-12-23T15:45:26.793Z,4.32
2022-12-23T15:48:31.757Z,3.10
2022-12-23T15:52:05.625Z,4.60
2022-12-23T15:54:52.747Z,3.45
2022-12-23T15:57:50.022Z,3.35
2022-12-23T16:00:59.450Z,4.35
2022-12-23T16:03:55.754Z,3.67
2022-12-23T16:06:49.237Z,3.63
2022-12-23T16:09:36.962Z,3.42
2022-12-23T16:12:26.216Z,2.78
2022-12-23T16:15:31.954Z,3.15
2022-12-23T16:18:19.434Z,3.15
2022-12-23T16:21:12.071Z,3.97
2022-12-23T16:24:00.187Z,3.45
2022-12-23T16:26:47.712Z,3.40
2022-12-23T16:29:35.923Z,3.20
2022-12-23T16:32:23.525Z,3.33
2022-12-23T16:35:12.491Z,3.17
2022-12-23T16:38:17.631Z,3.75
2022-12-23T16:41:05.344Z,4.45
2022-12-23T16:43:53.239Z,4.47
2022-12-23T16:46:45.137Z,3.58
2022-12-23T16:49:34.271Z,3.92
2022-12-23T16:52:22.190Z,3.65
2022-12-23T16:55:17.004Z,4.05
2022-12-23T16:58:04.765Z,4.35
2022-12-23T17:00:52.825Z,4.13
2022-12-23T17:03:40.567Z,3.80
2022-12-23T17:06:28.112Z,4.65
2022-12-23T17:09:15.719Z,4.45
2022-12-23T17:12:04.102Z,3.67
2022-12-23T17:14:51.945Z,3.95
2022-12-23T17:17:39.741Z,4.05
2022-12-23T17:20:27.243Z,4.63
2022-12-23T17:22:57.730Z,4.10
2022-12-23T17:25:26.731Z,4.55
2022-12-23T17:27:55.658Z,4.68
2022-12-23T17:30:41.557Z,4.15
2022-12-23T17:33:31.104Z,4.35
2022-12-23T17:36:16.983Z,5.27
2022-12-23T17:38:44.304Z,4.00
2022-12-23T17:41:20.892Z,4.07
2022-12-23T17:43:48.137Z,5.07
2022-12-23T17:46:15.669Z,5.38
2022-12-23T17:48:44.949Z,4.40
2022-12-23T17:51:14.416Z,5.53
2022-12-23T17:53:42.190Z,4.57
2022-12-23T17:56:20.221Z,4.30
2022-12-23T17:58:49.120Z,5.45
2022-12-23T18:01:27.884Z,5.00
2022-12-23T18:03:56.676Z,6.00
2022-12-23T18:06:25.267Z,7.93
2022-12-23T18:08:52.577Z,5.88
2022-12-23T18:11:29.777Z,5.78
2022-12-23T18:13:57.193Z,5.47
2022-12-23T18:16:24.477Z,5.57
2022-12-23T18:18:52.816Z,4.97
2022-12-23T18:21:25.174Z,6.28
2022-12-23T18:23:54.442Z,6.05
2022-12-23T18:26:22.202Z,5.63
2022-12-23T18:28:51.362Z,8.30
2022-12-23T18:31:21.466Z,6.10
2022-12-23T18:36:26.281Z,5.72
2022-12-23T18:38:53.830Z,6.05
2022-12-23T18:41:22.121Z,7.60
2022-12-23T18:43:50.366Z,7.20
2022-12-23T18:46:20.080Z,5.53
2022-12-23T18:48:48.079Z,6.40
2022-12-23T18:51:20.274Z,9.68
2022-12-23T18:53:48.310Z,7.78
2022-12-23T18:56:21.215Z,6.82
2022-12-23T18:58:48.788Z,7.22
2022-12-23T19:01:17.212Z,7.05
2022-12-23T19:03:45.337Z,5.82
2022-12-23T19:06:14.757Z,8.32
2022-12-23T19:08:42.565Z,6.73
2022-12-23T19:11:19.000Z,9.43
2022-12-23T19:13:47.088Z,7.03
2022-12-23T19:16:16.688Z,6.90
2022-12-23T19:18:45.111Z,7.13
2022-12-23T19:21:12.504Z,12.13
2022-12-23T19:23:41.045Z,15.82
2022-12-23T19:26:13.656Z,18.58
2022-12-23T19:28:41.720Z,20.58
2022-12-23T19:31:13.306Z,20.63
2022-12-23T19:33:42.182Z,15.95
2022-12-23T19:36:22.733Z,19.17
2022-12-23T19:38:50.489Z,34.30
2022-12-23T19:41:18.464Z,16.55
2022-12-23T19:43:46.701Z,16.70
2022-12-23T19:46:15.387Z,14.25
2022-12-23T19:48:42.998Z,9.63
2022-12-23T19:51:13.134Z,11.32
2022-12-23T19:56:13.743Z,7.97
2022-12-23T19:58:42.843Z,8.18
2022-12-23T20:01:13.588Z,8.70
2022-12-23T20:03:41.995Z,7.97
2022-12-23T20:06:21.742Z,7.70
2022-12-23T20:08:50.910Z,7.22
2022-12-23T20:11:23.106Z,7.95
2022-12-23T20:13:55.136Z,7.75
2022-12-23T20:16:23.271Z,8.55
2022-12-23T20:18:50.878Z,7.93
2022-12-23T20:21:18.870Z,6.97
2022-12-23T20:23:46.196Z,7.43
2022-12-23T20:26:14.117Z,8.13
2022-12-23T20:28:42.529Z,11.07
2022-12-23T20:31:10.020Z,9.85
2022-12-23T20:33:38.595Z,11.38
2022-12-23T20:36:07.046Z,11.23
2022-12-23T20:38:35.895Z,10.43
2022-12-23T20:41:03.276Z,12.05
2022-12-23T20:43:30.761Z,18.60
2022-12-23T20:45:58.260Z,11.73
2022-12-23T20:48:31.820Z,11.75
2022-12-23T20:51:05.761Z,10.75
2022-12-23T20:53:33.321Z,10.10
2022-12-23T20:56:05.056Z,10.82
2022-12-23T20:58:51.171Z,8.35
2022-12-23T21:01:18.632Z,11.73
2022-12-23T21:03:45.871Z,10.38
2022-12-23T21:06:13.292Z,8.00
2022-12-23T21:08:40.726Z,7.95
2022-12-23T21:11:08.256Z,7.47
2022-12-23T21:13:37.009Z,6.68
2022-12-23T21:16:06.579Z,7.45
2022-12-23T21:18:34.888Z,7.68
2022-12-23T21:21:04.398Z,9.00
2022-12-23T21:23:37.037Z,6.82
2022-12-23T21:26:15.335Z,7.55
2022-12-23T21:28:43.911Z,9.07
2022-12-23T21:31:11.436Z,7.65
2022-12-23T21:33:40.513Z,10.65
2022-12-23T21:36:08.671Z,8.70
2022-12-23T21:38:38.807Z,9.82
2022-12-23T21:43:35.608Z,11.77
2022-12-23T21:46:05.719Z,10.95
2022-12-23T21:48:35.122Z,12.68
2022-12-23T21:51:07.022Z,10.93
2022-12-23T21:53:35.256Z,9.02
2022-12-23T21:56:08.364Z,9.40
2022-12-23T21:58:36.179Z,14.85
2022-12-23T22:01:12.352Z,9.80
2022-12-23T22:03:40.114Z,9.85
2022-12-23T22:06:10.808Z,7.35
2022-12-23T22:08:39.006Z,7.88
2022-12-23T22:11:11.307Z,6.95
2022-12-23T22:13:38.843Z,7.43
2022-12-23T22:16:10.574Z,8.75
2022-12-23T22:18:38.903Z,7.13
2022-12-23T22:21:15.331Z,8.30
2022-12-23T22:23:43.243Z,7.35
2022-12-23T22:26:12.707Z,7.88
2022-12-23T22:28:40.204Z,7.63
2022-12-23T22:31:13.799Z,9.40
2022-12-23T22:33:41.237Z,8.10
2022-12-23T22:36:11.597Z,7.32
2022-12-23T22:38:39.184Z,8.15
2022-12-23T22:41:07.196Z,8.65
2022-12-23T22:43:34.669Z,7.90
2022-12-23T22:46:02.158Z,8.45
2022-12-23T22:48:30.779Z,7.55
2022-12-23T22:51:09.522Z,8.82
2022-12-23T22:53:37.037Z,8.27
2022-12-23T22:56:05.385Z,8.60
2022-12-23T22:58:34.043Z,8.63
2022-12-23T23:01:01.809Z,7.95
2022-12-23T23:03:29.732Z,7.40
2022-12-23T23:06:02.491Z,8.10
2022-12-23T23:08:31.141Z,7.50
2022-12-23T23:10:59.942Z,8.25
2022-12-23T23:13:29.938Z,7.68
2022-12-23T23:15:57.472Z,8.88
2022-12-23T23:18:25.329Z,7.55
2022-12-23T23:20:52.911Z,7.95
2022-12-23T23:23:20.452Z,7.97
2022-12-23T23:25:47.943Z,7.70
2022-12-23T23:28:15.699Z,7.50
2022-12-23T23:30:43.021Z,9.38
2022-12-23T23:33:10.670Z,7.82
2022-12-23T23:35:37.954Z,7.25
2022-12-23T23:38:05.325Z,6.55
2022-12-23T23:40:32.747Z,7.63
2022-12-23T23:43:00.056Z,7.38
2022-12-23T23:45:27.742Z,8.05
2022-12-23T23:47:55.442Z,8.80
2022-12-23T23:50:22.735Z,7.18
2022-12-23T23:52:50.019Z,7.55
2022-12-23T23:55:17.524Z,6.53
2022-12-23T23:57:44.768Z,8.93
